Time;durP1;ratioP1;P1;durP2;ratioP2;P2;SDS_P1;SDS_P2;PMS_P1;PMS_P2;Temp;Humidity;BMP_temperature;BMP_pressure;BME280_temperature;BME280_humidity;BME280_pressure;Samples;Min_cycle;Max_cycle;Signal;HPM_P1;HPM_P2
2022/08/02 00:00:00;;;;;;;;;;;;;;;21.43;100.00;100441.91;10715558;27;19933;-66
2022/08/02 00:05:03;;;;;;;;;;;;;;;21.43;100.00;100443.72;10715041;27;20380;-68
2022/08/02 00:10:07;;;;;;;;;;;;;;;21.41;100.00;100435.91;10716343;27;19923;-67
2022/08/02 00:15:13;;;;;;;;;;;;;;;21.42;100.00;100448.16;10714910;27;19938;-71
2022/08/02 00:20:18;;;;;;;;;;;;;;;21.40;100.00;100444.72;10714712;27;19960;-68
2022/08/02 00:25:21;;;;;;;;;;;;;;;21.33;100.00;100442.53;10714425;27;19933;-65
2022/08/02 00:30:25;;;;;;;;;;;;;;;21.32;100.00;100446.06;10714786;27;20017;-67
2022/08/02 00:35:28;;;;;;;;;;;;;;;21.27;100.00;100461.31;10714118;27;19933;-67
2022/08/02 00:40:31;;;;;;;;;;;;;;;21.28;100.00;100458.59;10713328;27;19997;-69
2022/08/02 00:45:37;;;;;;;;;;;;;;;21.28;100.00;100460.38;10713886;27;19923;-68
2022/08/02 00:51:00;;;;;;;;;;;;;;;21.26;100.00;100447.25;10713728;27;19938;-68
2022/08/02 00:56:03;;;;;;;;;;;;;;;21.21;100.00;100443.16;10713659;27;19926;-67
2022/08/02 01:01:07;;;;;;;;;;;;;;;21.14;100.00;100457.63;10713760;27;19931;-66
2022/08/02 01:06:11;;;;;;;;;;;;;;;21.12;100.00;100460.31;10713419;27;19931;-68
2022/08/02 01:11:14;;;;;;;;;;;;;;;21.18;100.00;100467.91;10713187;27;19975;-69
2022/08/02 01:16:20;;;;;;;;;;;;;;;21.16;100.00;100466.28;10713117;27;19926;-67
2022/08/02 01:21:32;;;;;;;;;;;;;;;21.19;100.00;100474.06;10713435;27;19927;-67
2022/08/02 01:26:39;;;;;;;;;;;;;;;21.22;100.00;100479.19;10713303;27;19922;-68
2022/08/02 01:31:47;;;;;;;;;;;;;;;21.16;100.00;100471.56;10712859;27;20332;-73
2022/08/02 01:36:54;;;;;;;;;;;;;;;21.10;100.00;100471.88;10713158;27;20316;-68
2022/08/02 01:41:57;;;;;;;;;;;;;;;21.09;100.00;100467.56;10712557;27;20268;-68
2022/08/02 01:47:04;;;;;;;;;;;;;;;21.09;100.00;100472.84;10712710;27;19923;-71
2022/08/02 01:52:21;;;;;;;;;;;;;;;21.02;100.00;100466.16;10719270;27;20385;-72
2022/08/02 01:57:26;;;;;;;;;;;;;;;21.02;100.00;100464.34;10720440;27;19944;-68
2022/08/02 02:02:31;;;;;;;;;;;;;;;21.07;100.00;100469.41;10720413;27;19922;-67
2022/08/02 02:07:34;;;;;;;;;;;;;;;21.06;100.00;100478.25;10720140;27;20250;-66
2022/08/02 02:12:39;;;;;;;;;;;;;;;21.02;100.00;100479.34;10720030;27;19923;-67
2022/08/02 02:17:44;;;;;;;;;;;;;;;20.99;100.00;100483.00;10719761;27;20323;-67
2022/08/02 02:23:07;;;;;;;;;;;;;;;20.89;100.00;100488.78;10719454;27;19923;-66
2022/08/02 02:28:11;;;;;;;;;;;;;;;20.86;100.00;100481.03;10719371;27;19923;-71
2022/08/02 02:33:18;;;;;;;;;;;;;;;20.87;100.00;100488.00;10719141;27;19922;-70
2022/08/02 02:38:21;;;;;;;;;;;;;;;20.86;100.00;100479.25;10718960;27;20255;-69
2022/08/02 02:43:27;;;;;;;;;;;;;;;20.84;100.00;100491.66;10718462;27;19933;-69
2022/08/02 02:48:32;;;;;;;;;;;;;;;20.79;100.00;100487.53;10718516;27;20324;-67
2022/08/02 02:53:38;;;;;;;;;;;;;;;20.75;100.00;100497.38;10718166;27;19922;-68
2022/08/02 02:59:02;;;;;;;;;;;;;;;20.73;100.00;100490.47;10718158;27;20348;-68
2022/08/02 03:04:07;;;;;;;;;;;;;;;20.68;100.00;100493.34;10717293;27;19922;-68
2022/08/02 03:09:10;;;;;;;;;;;;;;;20.62;100.00;100491.84;10718253;27;20262;-66
2022/08/02 03:14:14;;;;;;;;;;;;;;;20.62;100.00;100489.22;10717303;27;19933;-69
2022/08/02 03:19:19;;;;;;;;;;;;;;;20.56;100.00;100491.31;10717488;27;20260;-66
2022/08/02 03:24:22;;;;;;;;;;;;;;;20.52;100.00;100479.19;10717265;27;19922;-68
2022/08/02 03:29:30;;;;;;;;;;;;;;;20.46;100.00;100490.03;10716763;27;19922;-65
2022/08/02 03:34:45;;;;;;;;;;;;;;;20.33;100.00;100487.13;10716477;27;19923;-69
2022/08/02 03:39:49;;;;;;;;;;;;;;;20.40;100.00;100492.97;10716486;27;20241;-67
2022/08/02 03:44:55;;;;;;;;;;;;;;;20.45;100.00;100481.25;10716510;27;19926;-69
2022/08/02 03:50:00;;;;;;;;;;;;;;;20.45;100.00;100494.44;10715766;27;19933;-69
2022/08/02 03:55:04;;;;;;;;;;;;;;;20.46;100.00;100503.22;10715732;27;20239;-70
2022/08/02 04:00:07;;;;;;;;;;;;;;;20.44;100.00;100511.22;10715608;27;19922;-73
2022/08/02 04:05:12;;;;;;;;;;;;;;;20.46;100.00;100516.41;10715334;27;19923;-69
2022/08/02 04:10:15;;;;;;;;;;;;;;;20.45;100.00;100526.09;10715214;27;19969;-68
2022/08/02 04:15:18;;;;;;;;;;;;;;;20.41;100.00;100535.09;10714013;27;19936;-69
2022/08/02 04:20:27;;;;;;;;;;;;;;;20.38;100.00;100531.75;10714744;27;19935;-69
2022/08/02 04:25:31;;;;;;;;;;;;;;;20.43;100.00;100527.94;10714746;27;19922;-69
2022/08/02 04:30:42;;;;;;;;;;;;;;;20.49;100.00;100545.25;10714624;27;19927;-68
2022/08/02 04:35:46;;;;;;;;;;;;;;;20.46;100.00;100543.66;10714231;27;19933;-71
2022/08/02 04:40:54;;;;;;;;;;;;;;;20.46;100.00;100545.41;10714036;27;19933;-71
2022/08/02 04:46:01;;;;;;;;;;;;;;;20.50;100.00;100553.09;10714043;27;19922;-71
2022/08/02 04:51:05;;;;;;;;;;;;;;;20.49;100.00;100548.78;10713829;27;20228;-68
2022/08/02 04:56:09;;;;;;;;;;;;;;;20.48;100.00;100552.31;10713721;27;19923;-71
2022/08/02 05:01:11;;;;;;;;;;;;;;;20.51;100.00;100562.75;10713411;27;19923;-71
2022/08/02 05:06:18;;;;;;;;;;;;;;;20.53;100.00;100576.72;10713838;27;19927;-70
2022/08/02 05:11:23;;;;;;;;;;;;;;;20.57;100.00;100580.91;10713571;27;19923;-67
2022/08/02 05:16:38;;;;;;;;;;;;;;;20.58;100.00;100582.63;10713385;27;19923;-69
2022/08/02 05:21:42;;;;;;;;;;;;;;;20.64;100.00;100594.66;10713079;27;19930;-69
2022/08/02 05:26:45;;;;;;;;;;;;;;;20.67;100.00;100590.06;10719258;27;20258;-69
2022/08/02 05:31:48;;;;;;;;;;;;;;;20.70;100.00;100604.91;10721680;27;19923;-72
2022/08/02 05:36:52;;;;;;;;;;;;;;;20.75;100.00;100607.31;10721789;27;19929;-70
2022/08/02 05:41:57;;;;;;;;;;;;;;;20.79;100.00;100604.50;10721874;27;19971;-68
2022/08/02 05:47:00;;;;;;;;;;;;;;;20.85;100.00;100603.31;10720778;27;19923;-69
2022/08/02 05:52:09;;;;;;;;;;;;;;;20.92;100.00;100612.66;10720742;27;19929;-70
2022/08/02 05:57:17;;;;;;;;;;;;;;;20.99;100.00;100606.19;10720745;27;19923;-69
2022/08/02 06:02:26;;;;;;;;;;;;;;;21.08;99.93;100616.28;10720607;27;19929;-68
2022/08/02 06:07:35;;;;;;;;;;;;;;;21.12;99.07;100617.88;10719015;27;19933;-69
2022/08/02 06:12:41;;;;;;;;;;;;;;;21.14;97.28;100619.47;10696349;27;20350;-67
2022/08/02 06:17:44;;;;;;;;;;;;;;;21.23;96.87;100616.41;10719981;27;20014;-68
2022/08/02 06:22:52;;;;;;;;;;;;;;;21.30;96.30;100617.81;10703277;27;20240;-66
2022/08/02 06:27:55;;;;;;;;;;;;;;;21.38;94.67;100623.53;10675777;27;19927;-66
2022/08/02 06:32:58;;;;;;;;;;;;;;;21.45;93.29;100624.94;10691897;27;19933;-70
2022/08/02 06:38:03;;;;;;;;;;;;;;;21.51;92.73;100627.31;10717823;27;19927;-68
2022/08/02 06:43:10;;;;;;;;;;;;;;;21.61;91.78;100628.53;10718106;27;19922;-70
2022/08/02 06:48:13;;;;;;;;;;;;;;;21.73;90.48;100624.41;10718581;27;19922;-71
2022/08/02 06:53:18;;;;;;;;;;;;;;;21.82;89.14;100623.97;10716654;27;20322;-66
2022/08/02 06:58:21;;;;;;;;;;;;;;;21.90;86.17;100637.63;10718106;27;19933;-68
2022/08/02 07:03:24;;;;;;;;;;;;;;;21.93;85.83;100637.50;10701571;27;19923;-71
2022/08/02 07:08:31;;;;;;;;;;;;;;;21.94;84.49;100635.69;10674380;27;19923;-67
2022/08/02 07:13:34;;;;;;;;;;;;;;;21.97;83.49;100643.47;10689429;27;19922;-68
2022/08/02 07:18:41;;;;;;;;;;;;;;;22.03;83.37;100651.94;10716965;27;19933;-67
2022/08/02 07:23:46;;;;;;;;;;;;;;;22.10;82.41;100647.16;10699867;27;19936;-66
2022/08/02 07:28:49;;;;;;;;;;;;;;;22.15;80.71;100635.41;10673231;27;20312;-67
2022/08/02 07:33:52;;;;;;;;;;;;;;;22.18;80.11;100634.38;10672769;27;19923;-71
2022/08/02 07:38:56;;;;;;;;;;;;;;;22.20;80.08;100643.97;10672917;27;19945;-67
2022/08/02 07:43:59;;;;;;;;;;;;;;;22.24;79.84;100640.22;10672216;27;19923;-68
2022/08/02 07:49:02;;;;;;;;;;;;;;;22.24;79.41;100644.66;10672491;27;19923;-69
2022/08/02 07:54:07;;;;;;;;;;;;;;;22.28;77.52;100636.47;10688091;27;19957;-68
2022/08/02 07:59:10;;;;;;;;;;;;;;;22.34;76.23;100632.63;10715615;27;19926;-68
2022/08/02 08:04:13;;;;;;;;;;;;;;;22.36;76.03;100626.34;10713845;27;19934;-70
2022/08/02 08:09:17;;;;;;;;;;;;;;;22.39;76.09;100639.41;10715163;27;19933;-66
2022/08/02 08:14:23;;;;;;;;;;;;;;;22.57;73.92;100643.72;10714567;27;20021;-69
2022/08/02 08:19:26;;;;;;;;;;;;;;;22.67;74.05;100639.66;10714791;27;19955;-66
2022/08/02 08:24:53;;;;;;;;;;;;;;;22.69;73.85;100643.03;10695721;27;20017;-70
2022/08/02 08:29:56;;;;;;;;;;;;;;;22.77;73.25;100643.47;10671188;27;19923;-67
2022/08/02 08:34:59;;;;;;;;;;;;;;;22.85;73.01;100643.03;10671566;27;19923;-69
2022/08/02 08:40:04;;;;;;;;;;;;;;;22.94;73.09;100647.81;10670548;27;19929;-68
2022/08/02 08:45:08;;;;;;;;;;;;;;;22.91;72.67;100642.72;10670376;27;19927;-75
2022/08/02 08:50:14;;;;;;;;;;;;;;;22.93;71.85;100640.84;10670349;27;20247;-67
2022/08/02 08:55:27;;;;;;;;;;;;;;;22.98;71.52;100637.91;10670283;27;19924;-68
2022/08/02 09:00:31;;;;;;;;;;;;;;;23.03;71.71;100649.09;10669450;27;20454;-72
2022/08/02 09:05:35;;;;;;;;;;;;;;;23.13;70.19;100647.63;10669744;27;19933;-66
2022/08/02 09:10:40;;;;;;;;;;;;;;;23.20;69.79;100654.28;10670039;27;19927;-69
2022/08/02 09:15:45;;;;;;;;;;;;;;;23.29;69.78;100644.06;10669916;27;19929;-69
2022/08/02 09:20:52;;;;;;;;;;;;;;;23.44;68.88;100643.16;10669686;27;20015;-65
2022/08/02 09:26:01;;;;;;;;;;;;;;;23.48;69.40;100642.06;10679523;27;19946;-65
2022/08/02 09:31:12;;;;;;;;;;;;;;;23.73;69.52;100650.25;10669678;27;19934;-68
2022/08/02 09:36:16;;;;;;;;;;;;;;;23.91;67.61;100659.78;10669252;27;19923;-68
2022/08/02 09:41:21;;;;;;;;;;;;;;;23.94;67.78;100664.88;10669457;27;19923;-68
2022/08/02 09:46:26;;;;;;;;;;;;;;;24.00;68.43;100666.34;10669417;27;19923;-70
2022/08/02 09:51:31;;;;;;;;;;;;;;;24.21;68.36;100661.53;10669623;27;19923;-68
2022/08/02 09:56:43;;;;;;;;;;;;;;;24.56;67.39;100658.41;10691282;27;19922;-69
2022/08/02 10:01:47;;;;;;;;;;;;;;;25.22;71.70;100655.91;10712642;27;20402;-68
2022/08/02 10:07:02;;;;;;;;;;;;;;;33.78;50.45;100639.56;10711738;27;19922;-68
2022/08/02 10:12:08;;;;;;;;;;;;;;;34.92;43.26;100621.22;10715295;27;19975;-69
2022/08/02 10:17:11;;;;;;;;;;;;;;;28.65;54.64;100632.38;10719227;27;19980;-69
2022/08/02 10:22:15;;;;;;;;;;;;;;;34.16;42.55;100624.88;10719536;27;20343;-70
2022/08/02 10:27:24;;;;;;;;;;;;;;;31.01;47.56;100624.47;10718901;27;19934;-68
2022/08/02 10:32:29;;;;;;;;;;;;;;;29.05;48.73;100636.22;10719344;27;20009;-69
2022/08/02 10:37:33;;;;;;;;;;;;;;;27.76;52.01;100638.59;10693199;27;19923;-65
2022/08/02 10:42:46;;;;;;;;;;;;;;;27.09;55.92;100645.44;10675342;27;19923;-69
2022/08/02 10:47:59;;;;;;;;;;;;;;;26.56;58.64;100643.97;10674006;27;19929;-68
2022/08/02 10:53:18;;;;;;;;;;;;;;;26.46;60.28;100656.22;10675052;27;19934;-65
2022/08/02 10:58:23;;;;;;;;;;;;;;;26.36;60.97;100651.66;10703487;27;19923;-66
2022/08/02 11:03:36;;;;;;;;;;;;;;;26.45;61.14;100635.03;10717880;27;19927;-67
2022/08/02 11:08:41;;;;;;;;;;;;;;;26.57;61.14;100631.50;10717251;27;19971;-64
2022/08/02 11:14:01;;;;;;;;;;;;;;;26.38;62.77;100634.63;10717177;27;19933;-65
2022/08/02 11:19:05;;;;;;;;;;;;;;;26.39;59.58;100636.31;10717078;27;19933;-66
2022/08/02 11:24:26;;;;;;;;;;;;;;;26.09;60.56;100641.97;10685890;27;20344;-67
2022/08/02 11:29:37;;;;;;;;;;;;;;;26.74;60.05;100640.03;10708105;27;20010;-68
2022/08/02 11:34:42;;;;;;;;;;;;;;;26.36;61.50;100631.22;10716212;27;19933;-66
2022/08/02 11:39:51;;;;;;;;;;;;;;;26.96;59.33;100637.50;10678988;27;19923;-66
2022/08/02 11:44:55;;;;;;;;;;;;;;;26.60;61.10;100641.94;10673092;27;19923;-66
2022/08/02 11:50:04;;;;;;;;;;;;;;;26.39;62.17;100654.97;10709702;27;19927;-66
2022/08/02 11:55:08;;;;;;;;;;;;;;;26.20;61.97;100657.22;10713948;27;19933;-64
2022/08/02 12:00:15;;;;;;;;;;;;;;;27.33;58.57;100641.00;10679868;27;19923;-63
2022/08/02 12:05:19;;;;;;;;;;;;;;;27.94;57.90;100640.72;10671944;27;20018;-66
2022/08/02 12:10:28;;;;;;;;;;;;;;;28.06;58.09;100633.59;10686598;27;20064;-66
2022/08/02 12:15:35;;;;;;;;;;;;;;;28.12;57.93;100636.63;10714567;27;20259;-65
2022/08/02 12:20:38;;;;;;;;;;;;;;;27.51;59.48;100638.75;10710462;27;19923;-61
2022/08/02 12:25:41;;;;;;;;;;;;;;;27.15;60.15;100634.31;10714517;27;19929;-65
2022/08/02 12:30:53;;;;;;;;;;;;;;;28.46;56.51;100632.13;10674934;27;19935;-64
2022/08/02 12:35:56;;;;;;;;;;;;;;;27.93;58.11;100639.03;10671000;27;19929;-64
2022/08/02 12:41:11;;;;;;;;;;;;;;;27.81;58.00;100639.94;10670407;27;19927;-67
2022/08/02 12:46:35;;;;;;;;;;;;;;;29.59;53.65;100629.94;10670901;27;20255;-67
2022/08/02 12:51:47;;;;;;;;;;;;;;;30.48;51.11;100631.06;10670299;27;19923;-68
2022/08/02 12:57:09;;;;;;;;;;;;;;;30.68;50.97;100632.84;10671409;27;20017;-69
2022/08/02 13:02:15;;;;;;;;;;;;;;;29.25;54.34;100638.09;10713400;27;20415;-67
2022/08/02 13:07:19;;;;;;;;;;;;;;;30.03;52.89;100629.72;10710006;27;19949;-66
2022/08/02 13:12:22;;;;;;;;;;;;;;;30.16;53.58;100630.34;10670009;27;20251;-68
2022/08/02 13:17:26;;;;;;;;;;;;;;;28.79;56.46;100640.16;10672747;27;19929;-71
2022/08/02 13:22:29;;;;;;;;;;;;;;;28.20;57.21;100646.69;10713002;27;20017;-66
2022/08/02 13:27:32;;;;;;;;;;;;;;;29.22;54.92;100646.41;10712318;27;19945;-70
2022/08/02 13:32:37;;;;;;;;;;;;;;;28.98;55.93;100631.47;10712648;27;19941;-69
2022/08/02 13:37:41;;;;;;;;;;;;;;;28.91;56.55;100639.16;10709359;27;20606;-69
2022/08/02 13:42:44;;;;;;;;;;;;;;;28.27;57.50;100643.44;10669220;27;19923;-69
2022/08/02 13:47:49;;;;;;;;;;;;;;;28.58;55.87;100641.88;10676429;27;19923;-65
2022/08/02 13:53:07;;;;;;;;;;;;;;;29.23;55.13;100640.06;10720496;27;19923;-66
2022/08/02 13:58:10;;;;;;;;;;;;;;;29.31;55.68;100637.63;10720356;27;19954;-64
2022/08/02 14:03:14;;;;;;;;;;;;;;;28.43;57.71;100641.25;10720073;27;19923;-66
2022/08/02 14:08:18;;;;;;;;;;;;;;;28.50;57.44;100636.28;10718309;27;20017;-65
2022/08/02 14:13:21;;;;;;;;;;;;;;;28.22;58.63;100636.75;10720110;27;19923;-67
2022/08/02 14:18:26;;;;;;;;;;;;;;;27.67;59.39;100642.81;10718861;27;20597;-66
2022/08/02 14:23:31;;;;;;;;;;;;;;;27.36;61.29;100637.22;10719165;27;19937;-65
2022/08/02 14:28:52;;;;;;;;;;;;;;;27.12;62.39;100642.53;10713755;27;19933;-65
2022/08/02 14:33:56;;;;;;;;;;;;;;;27.02;61.52;100629.06;10675435;27;20275;-68
2022/08/02 14:39:00;;;;;;;;;;;;;;;27.12;60.95;100632.75;10675828;27;19934;-65
2022/08/02 14:44:03;;;;;;;;;;;;;;;27.28;60.48;100630.63;10675099;27;20031;-66
2022/08/02 14:49:09;;;;;;;;;;;;;;;27.02;60.97;100638.88;10680802;27;19926;-67
2022/08/02 14:54:12;;;;;;;;;;;;;;;26.76;62.79;100638.09;10717612;27;19933;-67
2022/08/02 14:59:16;;;;;;;;;;;;;;;26.76;63.06;100638.09;10716770;27;19982;-62
2022/08/02 15:04:20;;;;;;;;;;;;;;;26.86;63.30;100639.13;10713110;27;20355;-62
2022/08/02 15:09:23;;;;;;;;;;;;;;;26.79;62.81;100632.53;10717134;27;19933;-62
2022/08/02 15:14:27;;;;;;;;;;;;;;;26.64;63.51;100636.28;10717462;27;19922;-63
2022/08/02 15:19:31;;;;;;;;;;;;;;;26.47;62.99;100641.13;10717432;27;20327;-67
2022/08/02 15:24:54;;;;;;;;;;;;;;;26.67;63.73;100643.22;10680314;27;20285;-69
2022/08/02 15:29:59;;;;;;;;;;;;;;;26.66;64.00;100644.16;10688848;27;19931;-66
2022/08/02 15:35:04;;;;;;;;;;;;;;;26.69;63.17;100647.50;10681483;27;19927;-70
2022/08/02 15:40:08;;;;;;;;;;;;;;;26.70;63.07;100643.00;10704395;27;20262;-68
2022/08/02 15:45:12;;;;;;;;;;;;;;;26.54;64.14;100640.53;10716105;27;19929;-69
2022/08/02 15:50:19;;;;;;;;;;;;;;;26.58;64.32;100649.16;10716333;27;19923;-66
2022/08/02 15:55:22;;;;;;;;;;;;;;;26.57;64.60;100643.00;10715341;27;19926;-68
2022/08/02 16:00:26;;;;;;;;;;;;;;;26.58;64.53;100639.38;10715256;27;19922;-65
2022/08/02 16:05:31;;;;;;;;;;;;;;;26.34;65.54;100645.59;10715245;27;19949;-66
2022/08/02 16:10:34;;;;;;;;;;;;;;;26.17;66.94;100647.66;10714833;27;20235;-67
2022/08/02 16:15:37;;;;;;;;;;;;;;;26.03;67.47;100655.72;10714932;27;20022;-68
2022/08/02 16:20:41;;;;;;;;;;;;;;;26.04;67.42;100656.59;10714766;27;19923;-67
2022/08/02 16:25:44;;;;;;;;;;;;;;;26.02;67.12;100658.47;10714193;27;20345;-65
2022/08/02 16:30:47;;;;;;;;;;;;;;;25.97;67.18;100664.09;10714059;27;20009;-65
2022/08/02 16:36:12;;;;;;;;;;;;;;;25.92;68.20;100670.69;10714159;27;19923;-66
2022/08/02 16:41:15;;;;;;;;;;;;;;;25.84;69.51;100665.03;10714328;27;20080;-69
2022/08/02 16:46:20;;;;;;;;;;;;;;;25.72;70.18;100669.38;10713347;27;20438;-66
2022/08/02 16:51:26;;;;;;;;;;;;;;;25.64;70.07;100665.53;10713248;27;19976;-67
2022/08/02 16:56:32;;;;;;;;;;;;;;;25.55;69.91;100666.16;10713763;27;20160;-68
2022/08/02 17:01:35;;;;;;;;;;;;;;;25.48;69.67;100672.81;10713570;27;20347;-65
2022/08/02 17:07:00;;;;;;;;;;;;;;;25.40;70.09;100675.16;10713191;27;19923;-66
2022/08/02 17:12:03;;;;;;;;;;;;;;;25.36;69.98;100676.25;10713096;27;19944;-69
2022/08/02 17:17:06;;;;;;;;;;;;;;;25.32;71.61;100680.06;10713086;27;19923;-70
2022/08/02 17:22:17;;;;;;;;;;;;;;;25.22;71.62;100673.66;10718467;27;19923;-69
2022/08/02 17:27:20;;;;;;;;;;;;;;;25.13;72.21;100683.94;10721841;27;20410;-65
2022/08/02 17:32:23;;;;;;;;;;;;;;;25.06;71.36;100687.94;10721354;27;20365;-66
2022/08/02 17:37:32;;;;;;;;;;;;;;;24.98;71.86;100682.28;10721754;27;20017;-69
2022/08/02 17:42:36;;;;;;;;;;;;;;;24.88;72.32;100685.63;10721182;27;19934;-68
2022/08/02 17:47:40;;;;;;;;;;;;;;;24.77;73.23;100686.28;10720524;27;19929;-66
2022/08/02 17:52:45;;;;;;;;;;;;;;;24.67;73.54;100693.09;10720932;27;19922;-66
2022/08/02 17:57:54;;;;;;;;;;;;;;;24.59;74.03;100697.19;10720501;27;20263;-67
2022/08/02 18:03:01;;;;;;;;;;;;;;;24.50;76.01;100701.28;10720544;27;19933;-67
2022/08/02 18:08:10;;;;;;;;;;;;;;;24.40;77.33;100707.25;10720305;27;19929;-66
2022/08/02 18:13:16;;;;;;;;;;;;;;;24.29;78.63;100713.19;10719916;27;19971;-67
2022/08/02 18:18:19;;;;;;;;;;;;;;;24.17;79.66;100713.94;10719889;27;20379;-67
2022/08/02 18:23:33;;;;;;;;;;;;;;;24.02;80.00;100723.66;10719520;27;19922;-66
2022/08/02 18:28:45;;;;;;;;;;;;;;;23.95;81.85;100732.06;10719383;27;19922;-65
2022/08/02 18:33:48;;;;;;;;;;;;;;;23.97;82.73;100722.19;10717878;27;19933;-76
2022/08/02 18:39:04;;;;;;;;;;;;;;;23.84;83.71;100727.38;10719298;27;20017;-70
2022/08/02 18:44:10;;;;;;;;;;;;;;;23.74;84.35;100734.16;10719037;27;20025;-69
2022/08/02 18:49:18;;;;;;;;;;;;;;;23.65;85.40;100740.00;10718734;27;19986;-70
2022/08/02 18:54:22;;;;;;;;;;;;;;;23.58;86.37;100737.78;10718357;27;19954;-69
2022/08/02 18:59:34;;;;;;;;;;;;;;;23.48;87.82;100750.72;10718037;27;20387;-72
2022/08/02 19:04:42;;;;;;;;;;;;;;;23.39;88.21;100745.91;10717935;27;19923;-71
2022/08/02 19:09:50;;;;;;;;;;;;;;;23.32;89.15;100759.59;10700001;27;19979;-63
2022/08/02 19:14:57;;;;;;;;;;;;;;;;;;10717742;27;19934;-70
2022/08/02 19:20:01;;;;;;;;;;;;;;;23.21;89.62;100756.66;10717213;27;19923;-71
2022/08/02 19:25:06;;;;;;;;;;;;;;;23.11;90.15;100758.97;10717030;27;20013;-64
2022/08/02 19:30:18;;;;;;;;;;;;;;;23.02;90.49;100759.44;10716598;27;20328;-64
2022/08/02 19:35:24;;;;;;;;;;;;;;;23.00;90.35;100757.84;10716487;27;19923;-67
2022/08/02 19:40:34;;;;;;;;;;;;;;;22.92;90.76;100766.19;10716588;27;20070;-65
2022/08/02 19:45:37;;;;;;;;;;;;;;;22.87;92.21;100762.94;10715752;27;19922;-66
2022/08/02 19:50:53;;;;;;;;;;;;;;;22.81;92.10;100758.81;10716538;27;19922;-65
2022/08/02 19:55:59;;;;;;;;;;;;;;;22.69;92.39;100763.94;10715963;27;20240;-67
2022/08/02 20:01:06;;;;;;;;;;;;;;;22.57;93.72;100757.50;10715656;27;19922;-67
2022/08/02 20:06:16;;;;;;;;;;;;;;;22.54;94.54;100755.03;10715486;27;19929;-65
2022/08/02 20:11:21;;;;;;;;;;;;;;;22.46;94.59;100754.53;10714922;27;19922;-67
2022/08/02 20:16:26;;;;;;;;;;;;;;;22.39;95.16;100755.78;10715082;27;20271;-61
2022/08/02 20:21:35;;;;;;;;;;;;;;;22.32;96.56;100754.41;10714784;27;19927;-62
2022/08/02 20:26:46;;;;;;;;;;;;;;;22.30;97.17;100761.56;10714532;27;19922;-63
2022/08/02 20:31:50;;;;;;;;;;;;;;;22.26;97.96;100765.28;10714629;27;20028;-64
2022/08/02 20:36:53;;;;;;;;;;;;;;;22.22;98.99;100763.75;10354999;27;10000303;-69
2022/08/02 20:42:00;;;;;;;;;;;;;;;22.20;99.00;100768.25;10714071;27;20358;-76
2022/08/02 20:47:23;;;;;;;;;;;;;;;22.12;99.02;100762.53;10713999;27;20339;-75
2022/08/02 20:52:41;;;;;;;;;;;;;;;22.08;100.00;100763.59;10714026;27;19930;-72
2022/08/02 20:57:46;;;;;;;;;;;;;;;21.97;100.00;100773.84;10712938;27;19923;-69
2022/08/02 21:14:02;;;;;;;;;;;;;;;21.88;100.00;100771.69;11043339;23;19983;-66
2022/08/02 21:19:11;;;;;;;;;;;;;;;21.95;100.00;100773.06;10138887;29;19986;-74
2022/08/02 21:24:14;;;;;;;;;;;;;;;21.86;100.00;100778.84;10138841;29;19927;-64
2022/08/02 21:29:18;;;;;;;;;;;;;;;21.77;100.00;100766.94;10138396;29;19933;-66
2022/08/02 21:34:21;;;;;;;;;;;;;;;21.71;100.00;100777.75;10138153;29;19934;-63
2022/08/02 21:39:29;;;;;;;;;;;;;;;21.71;100.00;100782.16;10138377;29;20238;-62
2022/08/02 21:44:33;;;;;;;;;;;;;;;21.68;100.00;100780.56;10138242;29;19927;-64
2022/08/02 21:49:36;;;;;;;;;;;;;;;21.60;100.00;100776.56;9793185;29;9999683;-64
2022/08/02 21:54:59;;;;;;;;;;;;;;;21.62;100.00;100775.56;10096555;29;19928;-69
2022/08/02 22:00:05;;;;;;;;;;;;;;;21.56;100.00;100790.84;10096388;29;19928;-65
2022/08/02 22:05:09;;;;;;;;;;;;;;;21.50;100.00;100791.16;10096602;29;19928;-60
2022/08/02 22:10:16;;;;;;;;;;;;;;;21.52;100.00;100789.28;10103046;29;19932;-64
2022/08/02 22:15:20;;;;;;;;;;;;;;;21.45;100.00;100786.09;10103118;29;19927;-62
2022/08/02 22:20:38;;;;;;;;;;;;;;;21.31;100.00;100790.31;10103155;29;20353;-62
2022/08/02 22:25:42;;;;;;;;;;;;;;;21.23;100.00;100792.44;10102576;29;20345;-61
2022/08/02 22:30:48;;;;;;;;;;;;;;;21.29;100.00;100785.13;10102528;29;20361;-62
2022/08/02 22:35:55;;;;;;;;;;;;;;;21.28;100.00;100779.88;10102185;29;19932;-61
2022/08/02 22:40:58;;;;;;;;;;;;;;;21.03;100.00;100797.81;10101982;29;19939;-63
2022/08/02 22:46:03;;;;;;;;;;;;;;;21.10;100.00;100804.50;10102771;29;20023;-63
2022/08/02 22:51:10;;;;;;;;;;;;;;;21.09;100.00;100797.53;10101546;29;19951;-64
2022/08/02 22:56:15;;;;;;;;;;;;;;;21.06;100.00;100809.09;10119019;29;19932;-62
2022/08/02 23:01:20;;;;;;;;;;;;;;;21.01;100.00;100810.22;10140255;29;19928;-63
2022/08/02 23:06:23;;;;;;;;;;;;;;;21.02;100.00;100810.13;10139800;29;19927;-62
2022/08/02 23:11:26;;;;;;;;;;;;;;;20.99;100.00;100810.28;10139718;29;20274;-62
2022/08/02 23:21:50;;;;;;;;;;;;;;;20.93;100.00;100807.03;10138806;29;19928;-63
2022/08/02 23:27:04;;;;;;;;;;;;;;;20.84;100.00;100807.44;10139324;29;20353;-66
2022/08/02 23:32:09;;;;;;;;;;;;;;;20.74;100.00;100801.75;10138696;29;19927;-62
2022/08/02 23:37:12;;;;;;;;;;;;;;;20.78;100.00;100803.28;10138766;29;19936;-65
2022/08/02 23:42:15;;;;;;;;;;;;;;;20.85;100.00;100795.94;10138695;29;20261;-67
2022/08/02 23:47:20;;;;;;;;;;;;;;;20.93;100.00;100801.75;10138246;29;20375;-70
2022/08/02 23:52:23;;;;;;;;;;;;;;;20.85;100.00;100803.88;10138226;29;19986;-69
2022/08/02 23:57:26;;;;;;;;;;;;;;;20.80;100.00;100800.59;10138271;29;19931;-70
